Taft, Oklahoma
Current Conditions -  °F | °C
As of 10:53 AM on Wednesday 22 Oct 2014 (Local Time) from KMKO Reporting Station
Few Clouds Few Clouds  
Wind Chill: 67°   Ceiling: Unl
Heat Index: 67°   Visibility: 10mi
Dew Point: 54°   Wind: 8mph
Humidity: 63%   Direction: 140°SE
Pressure: 30.22"   Gusts: NA
Location:  35.76°N, 95.55°W
Report Text: KMKO 221553Z AUTO 14007KT 10SM FEW060 19/12 A3022 RMK AO2 SLP228 T01940122
Loading
Personal Weather Stations






























Interactive Weather Map
Tropical Storm Tracking
New forecast layout! Learn more

10-Day Weather Forecast

Advertisements
Track Severe Weather on mobile